Anaktuvuk Pass, Alaska
Current Conditions -  °F | °C
As of 9:16 AM on Saturday 22 Nov 2014 (Local Time) from PAKP Reporting Station
Clear Clear  
Wind Chill: -6°   Ceiling: Unl
Heat Index: -6°   Visibility: 10mi
Dew Point: -18°   Wind: 0mph
Humidity: 55%   Direction: NA
Pressure: 29.48"   Gusts: NA
Location:  68.14°N, 151.74°W
Report Text: PAKP 221816Z AUTO 00000KT 10SM CLR M21/M28 A2948 RMK AO1
Loading
Personal Weather Stations






























Interactive Weather Map New forecast layout! Learn more

10-Day Weather Forecast

Advertisements
Track Severe Weather on mobile